sensor_id;sensor_type;location;lat;lon;timestamp;P1;durP1;ratioP1;P2;durP2;ratioP2
75169;SDS011;63749;49.186;9.222;2023-09-19T00:01:14;5.28;;;2.28;;
75169;SDS011;63749;49.186;9.222;2023-09-19T00:03:39;4.10;;;2.10;;
75169;SDS011;63749;49.186;9.222;2023-09-19T00:06:06;5.97;;;2.38;;
75169;SDS011;63749;49.186;9.222;2023-09-19T00:08:33;4.30;;;2.22;;
75169;SDS011;63749;49.186;9.222;2023-09-19T00:10:59;4.17;;;2.00;;
75169;SDS011;63749;49.186;9.222;2023-09-19T00:13:31;4.10;;;1.98;;
75169;SDS011;63749;49.186;9.222;2023-09-19T00:15:57;3.30;;;2.22;;
75169;SDS011;63749;49.186;9.222;2023-09-19T00:18:24;3.60;;;2.28;;
75169;SDS011;63749;49.186;9.222;2023-09-19T00:20:56;4.15;;;2.03;;
75169;SDS011;63749;49.186;9.222;2023-09-19T00:23:22;3.83;;;2.17;;
75169;SDS011;63749;49.186;9.222;2023-09-19T00:25:48;3.97;;;2.10;;
75169;SDS011;63749;49.186;9.222;2023-09-19T00:28:13;6.07;;;2.23;;
75169;SDS011;63749;49.186;9.222;2023-09-19T00:30:42;4.45;;;2.40;;
75169;SDS011;63749;49.186;9.222;2023-09-19T00:33:14;6.63;;;2.80;;
75169;SDS011;63749;49.186;9.222;2023-09-19T00:35:54;6.50;;;2.80;;
75169;SDS011;63749;49.186;9.222;2023-09-19T00:38:20;5.30;;;2.50;;
75169;SDS011;63749;49.186;9.222;2023-09-19T00:40:47;5.82;;;2.60;;
75169;SDS011;63749;49.186;9.222;2023-09-19T00:43:13;6.65;;;2.47;;
75169;SDS011;63749;49.186;9.222;2023-09-19T00:45:42;6.57;;;2.30;;
75169;SDS011;63749;49.186;9.222;2023-09-19T00:48:09;4.60;;;2.33;;
75169;SDS011;63749;49.186;9.222;2023-09-19T00:50:35;6.57;;;2.45;;
75169;SDS011;63749;49.186;9.222;2023-09-19T00:53:01;5.80;;;2.50;;
75169;SDS011;63749;49.186;9.222;2023-09-19T00:55:33;7.43;;;2.55;;
75169;SDS011;63749;49.186;9.222;2023-09-19T00:58:00;6.00;;;2.90;;
75169;SDS011;63749;49.186;9.222;2023-09-19T01:00:26;7.32;;;2.80;;
75169;SDS011;63749;49.186;9.222;2023-09-19T01:02:51;8.75;;;2.92;;
75169;SDS011;63749;49.186;9.222;2023-09-19T01:05:17;9.43;;;3.40;;
75169;SDS011;63749;49.186;9.222;2023-09-19T01:07:43;9.25;;;3.70;;
75169;SDS011;63749;49.186;9.222;2023-09-19T01:10:10;13.55;;;6.65;;
75169;SDS011;63749;49.186;9.222;2023-09-19T01:20:45;8.63;;;4.22;;
75169;SDS011;63749;49.186;9.222;2023-09-19T01:23:19;8.25;;;4.15;;
75169;SDS011;63749;49.186;9.222;2023-09-19T01:31:06;6.32;;;2.63;;
75169;SDS011;63749;49.186;9.222;2023-09-19T01:33:53;8.87;;;2.73;;
75169;SDS011;63749;49.186;9.222;2023-09-19T01:36:29;6.30;;;2.72;;
75169;SDS011;63749;49.186;9.222;2023-09-19T01:39:07;4.85;;;2.40;;
75169;SDS011;63749;49.186;9.222;2023-09-19T01:41:47;5.57;;;2.00;;
75169;SDS011;63749;49.186;9.222;2023-09-19T01:47:15;5.33;;;1.90;;
75169;SDS011;63749;49.186;9.222;2023-09-19T01:53:27;5.00;;;1.73;;
75169;SDS011;63749;49.186;9.222;2023-09-19T01:56:10;4.68;;;1.40;;
75169;SDS011;63749;49.186;9.222;2023-09-19T01:58:48;3.35;;;1.48;;
75169;SDS011;63749;49.186;9.222;2023-09-19T02:01:16;3.70;;;1.50;;
75169;SDS011;63749;49.186;9.222;2023-09-19T02:03:45;6.22;;;1.50;;
75169;SDS011;63749;49.186;9.222;2023-09-19T02:06:15;3.03;;;1.45;;
75169;SDS011;63749;49.186;9.222;2023-09-19T02:08:42;2.63;;;1.40;;
75169;SDS011;63749;49.186;9.222;2023-09-19T02:11:07;2.30;;;1.30;;
75169;SDS011;63749;49.186;9.222;2023-09-19T02:13:33;3.20;;;1.40;;
75169;SDS011;63749;49.186;9.222;2023-09-19T02:15:59;3.30;;;1.40;;
75169;SDS011;63749;49.186;9.222;2023-09-19T02:18:24;2.80;;;1.20;;
75169;SDS011;63749;49.186;9.222;2023-09-19T02:20:53;2.42;;;1.23;;
75169;SDS011;63749;49.186;9.222;2023-09-19T02:23:19;3.53;;;1.42;;
75169;SDS011;63749;49.186;9.222;2023-09-19T02:25:51;3.20;;;1.20;;
75169;SDS011;63749;49.186;9.222;2023-09-19T02:28:17;3.15;;;1.20;;
75169;SDS011;63749;49.186;9.222;2023-09-19T02:30:42;3.43;;;1.33;;
75169;SDS011;63749;49.186;9.222;2023-09-19T02:33:07;3.73;;;1.20;;
75169;SDS011;63749;49.186;9.222;2023-09-19T02:35:33;2.20;;;1.17;;
75169;SDS011;63749;49.186;9.222;2023-09-19T02:38:01;3.60;;;1.40;;
75169;SDS011;63749;49.186;9.222;2023-09-19T02:40:28;1.90;;;1.20;;
75169;SDS011;63749;49.186;9.222;2023-09-19T02:42:54;2.07;;;1.20;;
75169;SDS011;63749;49.186;9.222;2023-09-19T02:45:21;1.83;;;1.40;;
75169;SDS011;63749;49.186;9.222;2023-09-19T02:47:47;3.28;;;1.23;;
75169;SDS011;63749;49.186;9.222;2023-09-19T02:50:13;2.87;;;1.40;;
75169;SDS011;63749;49.186;9.222;2023-09-19T02:52:44;2.63;;;1.30;;
75169;SDS011;63749;49.186;9.222;2023-09-19T02:55:14;4.28;;;1.30;;
75169;SDS011;63749;49.186;9.222;2023-09-19T02:57:51;4.68;;;1.50;;
75169;SDS011;63749;49.186;9.222;2023-09-19T03:00:21;3.97;;;1.20;;
75169;SDS011;63749;49.186;9.222;2023-09-19T03:02:47;3.67;;;1.20;;
75169;SDS011;63749;49.186;9.222;2023-09-19T03:05:14;4.97;;;1.40;;
75169;SDS011;63749;49.186;9.222;2023-09-19T03:07:39;2.57;;;1.30;;
75169;SDS011;63749;49.186;9.222;2023-09-19T03:10:05;4.53;;;1.60;;
75169;SDS011;63749;49.186;9.222;2023-09-19T03:12:32;3.90;;;1.30;;
75169;SDS011;63749;49.186;9.222;2023-09-19T03:14:58;1.92;;;1.20;;
75169;SDS011;63749;49.186;9.222;2023-09-19T03:17:24;3.10;;;1.30;;
75169;SDS011;63749;49.186;9.222;2023-09-19T03:19:50;1.85;;;1.30;;
75169;SDS011;63749;49.186;9.222;2023-09-19T03:22:16;5.13;;;1.50;;
75169;SDS011;63749;49.186;9.222;2023-09-19T03:24:42;3.03;;;1.48;;
75169;SDS011;63749;49.186;9.222;2023-09-19T03:27:11;2.88;;;1.48;;
75169;SDS011;63749;49.186;9.222;2023-09-19T03:29:39;3.33;;;1.30;;
75169;SDS011;63749;49.186;9.222;2023-09-19T03:32:04;4.75;;;1.42;;
75169;SDS011;63749;49.186;9.222;2023-09-19T03:34:30;3.33;;;1.40;;
75169;SDS011;63749;49.186;9.222;2023-09-19T03:36:55;2.93;;;1.30;;
75169;SDS011;63749;49.186;9.222;2023-09-19T03:39:21;4.00;;;1.50;;
75169;SDS011;63749;49.186;9.222;2023-09-19T03:41:46;4.57;;;1.50;;
75169;SDS011;63749;49.186;9.222;2023-09-19T03:44:13;2.10;;;1.38;;
75169;SDS011;63749;49.186;9.222;2023-09-19T03:46:38;3.87;;;1.50;;
75169;SDS011;63749;49.186;9.222;2023-09-19T03:49:03;3.97;;;1.30;;
75169;SDS011;63749;49.186;9.222;2023-09-19T03:51:29;1.97;;;1.23;;
75169;SDS011;63749;49.186;9.222;2023-09-19T03:53:54;3.55;;;1.52;;
75169;SDS011;63749;49.186;9.222;2023-09-19T03:56:20;2.47;;;1.30;;
75169;SDS011;63749;49.186;9.222;2023-09-19T03:58:45;3.03;;;1.70;;
75169;SDS011;63749;49.186;9.222;2023-09-19T04:01:10;2.67;;;1.47;;
75169;SDS011;63749;49.186;9.222;2023-09-19T04:03:38;3.70;;;1.60;;
75169;SDS011;63749;49.186;9.222;2023-09-19T04:06:15;3.45;;;1.45;;
75169;SDS011;63749;49.186;9.222;2023-09-19T04:08:41;3.50;;;1.48;;
75169;SDS011;63749;49.186;9.222;2023-09-19T04:11:08;4.80;;;1.70;;
75169;SDS011;63749;49.186;9.222;2023-09-19T04:13:34;3.90;;;1.50;;
75169;SDS011;63749;49.186;9.222;2023-09-19T04:15:59;5.67;;;1.50;;
75169;SDS011;63749;49.186;9.222;2023-09-19T04:18:25;2.40;;;1.30;;
75169;SDS011;63749;49.186;9.222;2023-09-19T04:20:51;2.78;;;1.75;;
75169;SDS011;63749;49.186;9.222;2023-09-19T04:23:17;4.30;;;2.20;;
75169;SDS011;63749;49.186;9.222;2023-09-19T04:25:43;6.07;;;2.20;;
75169;SDS011;63749;49.186;9.222;2023-09-19T04:28:08;3.30;;;1.80;;
75169;SDS011;63749;49.186;9.222;2023-09-19T04:30:36;3.65;;;2.00;;
75169;SDS011;63749;49.186;9.222;2023-09-19T04:33:02;5.53;;;2.17;;
75169;SDS011;63749;49.186;9.222;2023-09-19T04:35:27;3.58;;;2.13;;
75169;SDS011;63749;49.186;9.222;2023-09-19T04:37:55;2.75;;;2.10;;
75169;SDS011;63749;49.186;9.222;2023-09-19T04:40:21;4.43;;;2.50;;
75169;SDS011;63749;49.186;9.222;2023-09-19T04:42:54;5.68;;;2.53;;
75169;SDS011;63749;49.186;9.222;2023-09-19T04:45:23;6.10;;;2.85;;
75169;SDS011;63749;49.186;9.222;2023-09-19T04:47:48;4.80;;;2.75;;
75169;SDS011;63749;49.186;9.222;2023-09-19T04:50:14;5.40;;;2.80;;
75169;SDS011;63749;49.186;9.222;2023-09-19T04:52:40;5.50;;;2.67;;
75169;SDS011;63749;49.186;9.222;2023-09-19T04:55:13;3.95;;;2.60;;
75169;SDS011;63749;49.186;9.222;2023-09-19T04:57:45;4.18;;;2.20;;
75169;SDS011;63749;49.186;9.222;2023-09-19T05:00:12;4.05;;;2.10;;
75169;SDS011;63749;49.186;9.222;2023-09-19T05:02:44;3.47;;;2.00;;
75169;SDS011;63749;49.186;9.222;2023-09-19T05:05:11;4.37;;;1.87;;
75169;SDS011;63749;49.186;9.222;2023-09-19T05:07:37;4.45;;;2.20;;
75169;SDS011;63749;49.186;9.222;2023-09-19T05:10:05;4.00;;;2.17;;
75169;SDS011;63749;49.186;9.222;2023-09-19T05:12:33;6.82;;;1.90;;
75169;SDS011;63749;49.186;9.222;2023-09-19T05:14:59;4.80;;;1.98;;
75169;SDS011;63749;49.186;9.222;2023-09-19T05:17:26;3.53;;;1.90;;
75169;SDS011;63749;49.186;9.222;2023-09-19T05:19:52;5.47;;;2.20;;
75169;SDS011;63749;49.186;9.222;2023-09-19T05:22:17;3.37;;;2.00;;
75169;SDS011;63749;49.186;9.222;2023-09-19T05:24:43;4.57;;;1.90;;
75169;SDS011;63749;49.186;9.222;2023-09-19T05:27:13;6.53;;;2.03;;
75169;SDS011;63749;49.186;9.222;2023-09-19T05:29:38;4.70;;;2.10;;
75169;SDS011;63749;49.186;9.222;2023-09-19T05:32:05;5.70;;;2.10;;
75169;SDS011;63749;49.186;9.222;2023-09-19T05:34:31;7.30;;;2.22;;
75169;SDS011;63749;49.186;9.222;2023-09-19T05:36:57;6.33;;;2.20;;
75169;SDS011;63749;49.186;9.222;2023-09-19T05:39:22;5.80;;;2.22;;
75169;SDS011;63749;49.186;9.222;2023-09-19T05:41:48;3.97;;;1.90;;
75169;SDS011;63749;49.186;9.222;2023-09-19T05:44:13;5.77;;;2.30;;
75169;SDS011;63749;49.186;9.222;2023-09-19T05:46:42;3.75;;;2.20;;
75169;SDS011;63749;49.186;9.222;2023-09-19T05:49:07;5.90;;;2.47;;
75169;SDS011;63749;49.186;9.222;2023-09-19T05:51:33;4.00;;;2.20;;
75169;SDS011;63749;49.186;9.222;2023-09-19T05:53:58;4.37;;;2.27;;
75169;SDS011;63749;49.186;9.222;2023-09-19T05:56:24;4.73;;;2.13;;
75169;SDS011;63749;49.186;9.222;2023-09-19T05:58:49;5.28;;;2.20;;
75169;SDS011;63749;49.186;9.222;2023-09-19T06:01:17;7.00;;;2.30;;
75169;SDS011;63749;49.186;9.222;2023-09-19T06:03:43;7.15;;;2.53;;
75169;SDS011;63749;49.186;9.222;2023-09-19T06:06:08;5.00;;;2.50;;
75169;SDS011;63749;49.186;9.222;2023-09-19T06:08:34;5.70;;;2.45;;
75169;SDS011;63749;49.186;9.222;2023-09-19T06:10:59;6.05;;;2.30;;
75169;SDS011;63749;49.186;9.222;2023-09-19T06:13:27;5.97;;;2.60;;
75169;SDS011;63749;49.186;9.222;2023-09-19T06:15:54;6.80;;;2.60;;
75169;SDS011;63749;49.186;9.222;2023-09-19T06:18:23;8.97;;;2.57;;
75169;SDS011;63749;49.186;9.222;2023-09-19T06:20:51;5.10;;;2.80;;
75169;SDS011;63749;49.186;9.222;2023-09-19T06:23:17;7.05;;;2.75;;
75169;SDS011;63749;49.186;9.222;2023-09-19T06:25:43;11.07;;;3.30;;
75169;SDS011;63749;49.186;9.222;2023-09-19T06:28:09;6.70;;;3.10;;
75169;SDS011;63749;49.186;9.222;2023-09-19T06:30:37;7.75;;;3.30;;
75169;SDS011;63749;49.186;9.222;2023-09-19T06:33:05;7.63;;;3.30;;
75169;SDS011;63749;49.186;9.222;2023-09-19T06:35:31;6.87;;;3.33;;
75169;SDS011;63749;49.186;9.222;2023-09-19T06:37:57;6.22;;;3.30;;
75169;SDS011;63749;49.186;9.222;2023-09-19T06:40:23;6.17;;;3.00;;
75169;SDS011;63749;49.186;9.222;2023-09-19T06:42:52;5.05;;;2.90;;
75169;SDS011;63749;49.186;9.222;2023-09-19T06:45:19;5.22;;;3.17;;
75169;SDS011;63749;49.186;9.222;2023-09-19T06:47:45;6.13;;;2.97;;
75169;SDS011;63749;49.186;9.222;2023-09-19T06:50:14;6.45;;;3.00;;
75169;SDS011;63749;49.186;9.222;2023-09-19T06:52:43;6.32;;;3.35;;
75169;SDS011;63749;49.186;9.222;2023-09-19T06:55:09;13.50;;;3.70;;
75169;SDS011;63749;49.186;9.222;2023-09-19T06:57:36;14.40;;;3.67;;
75169;SDS011;63749;49.186;9.222;2023-09-19T07:00:02;6.20;;;3.70;;
75169;SDS011;63749;49.186;9.222;2023-09-19T07:02:33;6.53;;;3.70;;
75169;SDS011;63749;49.186;9.222;2023-09-19T07:04:59;7.77;;;4.23;;
75169;SDS011;63749;49.186;9.222;2023-09-19T07:07:24;7.30;;;4.13;;
75169;SDS011;63749;49.186;9.222;2023-09-19T07:09:50;7.10;;;4.27;;
75169;SDS011;63749;49.186;9.222;2023-09-19T07:12:18;8.25;;;4.05;;
75169;SDS011;63749;49.186;9.222;2023-09-19T07:14:44;5.20;;;3.70;;
75169;SDS011;63749;49.186;9.222;2023-09-19T07:17:09;5.63;;;3.80;;
75169;SDS011;63749;49.186;9.222;2023-09-19T07:19:35;5.65;;;3.70;;
75169;SDS011;63749;49.186;9.222;2023-09-19T07:22:00;4.30;;;3.60;;
75169;SDS011;63749;49.186;9.222;2023-09-19T07:24:27;5.70;;;3.60;;
75169;SDS011;63749;49.186;9.222;2023-09-19T07:26:53;5.70;;;3.70;;
75169;SDS011;63749;49.186;9.222;2023-09-19T07:29:18;8.63;;;3.80;;
75169;SDS011;63749;49.186;9.222;2023-09-19T07:31:44;6.10;;;3.50;;
75169;SDS011;63749;49.186;9.222;2023-09-19T07:34:10;6.43;;;3.10;;
75169;SDS011;63749;49.186;9.222;2023-09-19T07:36:36;5.00;;;2.97;;
75169;SDS011;63749;49.186;9.222;2023-09-19T07:39:03;5.97;;;2.90;;
75169;SDS011;63749;49.186;9.222;2023-09-19T07:41:31;7.70;;;2.80;;
75169;SDS011;63749;49.186;9.222;2023-09-19T07:43:57;6.90;;;2.70;;
75169;SDS011;63749;49.186;9.222;2023-09-19T07:46:23;5.20;;;2.40;;
75169;SDS011;63749;49.186;9.222;2023-09-19T07:48:49;2.55;;;2.00;;
75169;SDS011;63749;49.186;9.222;2023-09-19T07:51:15;5.27;;;2.43;;
75169;SDS011;63749;49.186;9.222;2023-09-19T07:53:41;3.63;;;2.10;;
75169;SDS011;63749;49.186;9.222;2023-09-19T07:56:07;4.00;;;2.40;;
75169;SDS011;63749;49.186;9.222;2023-09-19T07:58:34;5.93;;;2.00;;
75169;SDS011;63749;49.186;9.222;2023-09-19T08:01:07;4.70;;;2.10;;
75169;SDS011;63749;49.186;9.222;2023-09-19T08:03:38;5.63;;;1.92;;
75169;SDS011;63749;49.186;9.222;2023-09-19T08:06:05;4.88;;;1.85;;
75169;SDS011;63749;49.186;9.222;2023-09-19T08:08:33;3.38;;;1.70;;
75169;SDS011;63749;49.186;9.222;2023-09-19T08:11:02;6.35;;;2.00;;
75169;SDS011;63749;49.186;9.222;2023-09-19T08:13:36;4.13;;;1.80;;
75169;SDS011;63749;49.186;9.222;2023-09-19T08:16:03;5.47;;;1.75;;
75169;SDS011;63749;49.186;9.222;2023-09-19T08:18:28;6.10;;;1.85;;
75169;SDS011;63749;49.186;9.222;2023-09-19T08:20:55;5.13;;;1.80;;
75169;SDS011;63749;49.186;9.222;2023-09-19T08:23:23;5.95;;;1.90;;
75169;SDS011;63749;49.186;9.222;2023-09-19T08:25:49;5.03;;;1.90;;
75169;SDS011;63749;49.186;9.222;2023-09-19T08:28:14;3.90;;;2.10;;
75169;SDS011;63749;49.186;9.222;2023-09-19T08:30:44;4.65;;;1.73;;
75169;SDS011;63749;49.186;9.222;2023-09-19T08:33:10;6.22;;;2.10;;
75169;SDS011;63749;49.186;9.222;2023-09-19T08:35:36;5.13;;;1.90;;
75169;SDS011;63749;49.186;9.222;2023-09-19T08:38:04;4.88;;;2.15;;
75169;SDS011;63749;49.186;9.222;2023-09-19T08:40:30;5.50;;;2.07;;
75169;SDS011;63749;49.186;9.222;2023-09-19T08:42:58;4.43;;;1.93;;
75169;SDS011;63749;49.186;9.222;2023-09-19T08:45:25;3.50;;;2.00;;
75169;SDS011;63749;49.186;9.222;2023-09-19T08:53:42;4.95;;;1.70;;
75169;SDS011;63749;49.186;9.222;2023-09-19T08:56:17;4.50;;;1.67;;
75169;SDS011;63749;49.186;9.222;2023-09-19T09:01:24;4.07;;;1.42;;
75169;SDS011;63749;49.186;9.222;2023-09-19T09:03:53;4.03;;;1.75;;
75169;SDS011;63749;49.186;9.222;2023-09-19T09:06:20;4.90;;;1.80;;
75169;SDS011;63749;49.186;9.222;2023-09-19T09:08:48;4.97;;;1.80;;
75169;SDS011;63749;49.186;9.222;2023-09-19T09:11:16;4.85;;;2.00;;
75169;SDS011;63749;49.186;9.222;2023-09-19T09:13:46;3.83;;;1.70;;
75169;SDS011;63749;49.186;9.222;2023-09-19T09:16:13;6.75;;;2.13;;
75169;SDS011;63749;49.186;9.222;2023-09-19T09:18:43;4.35;;;1.90;;
75169;SDS011;63749;49.186;9.222;2023-09-19T09:21:09;5.17;;;1.90;;
75169;SDS011;63749;49.186;9.222;2023-09-19T09:23:34;5.78;;;1.80;;
75169;SDS011;63749;49.186;9.222;2023-09-19T09:26:00;4.20;;;1.90;;
75169;SDS011;63749;49.186;9.222;2023-09-19T09:28:28;3.65;;;1.50;;
75169;SDS011;63749;49.186;9.222;2023-09-19T09:30:55;3.00;;;1.77;;
75169;SDS011;63749;49.186;9.222;2023-09-19T09:33:23;5.13;;;1.88;;
75169;SDS011;63749;49.186;9.222;2023-09-19T09:35:56;3.95;;;1.83;;
75169;SDS011;63749;49.186;9.222;2023-09-19T09:41:10;4.18;;;1.65;;
75169;SDS011;63749;49.186;9.222;2023-09-19T09:43:40;7.63;;;1.60;;
75169;SDS011;63749;49.186;9.222;2023-09-19T09:46:14;4.88;;;1.52;;
75169;SDS011;63749;49.186;9.222;2023-09-19T09:49:03;5.82;;;1.75;;
75169;SDS011;63749;49.186;9.222;2023-09-19T09:51:51;4.72;;;1.80;;
75169;SDS011;63749;49.186;9.222;2023-09-19T09:54:28;4.18;;;1.70;;
75169;SDS011;63749;49.186;9.222;2023-09-19T09:57:05;3.67;;;1.70;;
75169;SDS011;63749;49.186;9.222;2023-09-19T10:00:06;6.57;;;1.80;;
75169;SDS011;63749;49.186;9.222;2023-09-19T10:02:38;4.03;;;1.73;;
75169;SDS011;63749;49.186;9.222;2023-09-19T10:05:18;4.63;;;1.65;;
75169;SDS011;63749;49.186;9.222;2023-09-19T10:07:45;4.10;;;1.60;;
75169;SDS011;63749;49.186;9.222;2023-09-19T10:10:37;4.20;;;1.70;;
75169;SDS011;63749;49.186;9.222;2023-09-19T10:13:08;2.92;;;1.70;;
75169;SDS011;63749;49.186;9.222;2023-09-19T10:15:37;6.05;;;1.80;;
75169;SDS011;63749;49.186;9.222;2023-09-19T10:18:06;5.00;;;1.70;;
75169;SDS011;63749;49.186;9.222;2023-09-19T10:20:35;5.07;;;1.70;;
75169;SDS011;63749;49.186;9.222;2023-09-19T10:23:07;5.20;;;1.50;;
75169;SDS011;63749;49.186;9.222;2023-09-19T10:25:38;3.20;;;1.70;;
75169;SDS011;63749;49.186;9.222;2023-09-19T10:28:05;5.30;;;1.98;;
75169;SDS011;63749;49.186;9.222;2023-09-19T10:30:36;4.53;;;1.70;;
75169;SDS011;63749;49.186;9.222;2023-09-19T10:33:04;5.07;;;1.70;;
75169;SDS011;63749;49.186;9.222;2023-09-19T10:35:32;5.13;;;1.60;;
75169;SDS011;63749;49.186;9.222;2023-09-19T10:38:02;2.78;;;1.40;;
75169;SDS011;63749;49.186;9.222;2023-09-19T10:40:32;3.97;;;1.38;;
75169;SDS011;63749;49.186;9.222;2023-09-19T10:43:02;4.35;;;1.60;;
75169;SDS011;63749;49.186;9.222;2023-09-19T10:45:36;6.20;;;1.65;;
75169;SDS011;63749;49.186;9.222;2023-09-19T10:48:04;2.27;;;1.33;;
75169;SDS011;63749;49.186;9.222;2023-09-19T10:50:43;6.28;;;1.40;;
75169;SDS011;63749;49.186;9.222;2023-09-19T10:53:11;10.70;;;1.60;;
75169;SDS011;63749;49.186;9.222;2023-09-19T10:55:38;10.40;;;1.70;;
75169;SDS011;63749;49.186;9.222;2023-09-19T10:58:05;5.22;;;1.30;;
75169;SDS011;63749;49.186;9.222;2023-09-19T11:01:13;3.90;;;1.37;;
75169;SDS011;63749;49.186;9.222;2023-09-19T11:03:40;3.33;;;1.27;;
75169;SDS011;63749;49.186;9.222;2023-09-19T11:06:16;4.68;;;1.30;;
75169;SDS011;63749;49.186;9.222;2023-09-19T11:09:02;3.10;;;1.70;;
75169;SDS011;63749;49.186;9.222;2023-09-19T11:11:44;3.05;;;1.42;;
75169;SDS011;63749;49.186;9.222;2023-09-19T11:30:31;3.75;;;1.70;;
75169;SDS011;63749;49.186;9.222;2023-09-19T11:36:04;3.78;;;1.23;;
75169;SDS011;63749;49.186;9.222;2023-09-19T11:43:45;3.55;;;1.50;;
75169;SDS011;63749;49.186;9.222;2023-09-19T11:46:12;4.28;;;1.55;;
75169;SDS011;63749;49.186;9.222;2023-09-19T11:48:41;3.20;;;1.40;;
75169;SDS011;63749;49.186;9.222;2023-09-19T11:51:10;5.10;;;1.60;;
75169;SDS011;63749;49.186;9.222;2023-09-19T11:53:44;3.73;;;1.40;;
75169;SDS011;63749;49.186;9.222;2023-09-19T11:56:17;4.32;;;1.50;;
75169;SDS011;63749;49.186;9.222;2023-09-19T11:58:44;3.33;;;1.30;;
75169;SDS011;63749;49.186;9.222;2023-09-19T12:01:13;3.25;;;1.33;;
75169;SDS011;63749;49.186;9.222;2023-09-19T12:03:42;4.18;;;1.50;;
75169;SDS011;63749;49.186;9.222;2023-09-19T12:06:13;3.23;;;1.33;;
75169;SDS011;63749;49.186;9.222;2023-09-19T12:08:40;3.03;;;1.42;;
75169;SDS011;63749;49.186;9.222;2023-09-19T12:11:11;4.18;;;1.40;;
75169;SDS011;63749;49.186;9.222;2023-09-19T12:13:43;3.38;;;1.48;;
75169;SDS011;63749;49.186;9.222;2023-09-19T12:16:13;4.43;;;1.40;;
75169;SDS011;63749;49.186;9.222;2023-09-19T12:18:40;4.97;;;1.53;;
75169;SDS011;63749;49.186;9.222;2023-09-19T12:21:20;4.75;;;1.40;;
75169;SDS011;63749;49.186;9.222;2023-09-19T12:26:59;3.10;;;1.40;;
75169;SDS011;63749;49.186;9.222;2023-09-19T12:29:32;5.45;;;1.30;;
75169;SDS011;63749;49.186;9.222;2023-09-19T12:32:08;2.77;;;1.30;;
75169;SDS011;63749;49.186;9.222;2023-09-19T12:34:34;2.97;;;1.20;;
75169;SDS011;63749;49.186;9.222;2023-09-19T12:37:10;2.60;;;1.35;;
75169;SDS011;63749;49.186;9.222;2023-09-19T12:39:38;4.40;;;1.50;;
75169;SDS011;63749;49.186;9.222;2023-09-19T12:42:12;6.18;;;1.60;;
75169;SDS011;63749;49.186;9.222;2023-09-19T12:44:41;5.35;;;1.58;;
75169;SDS011;63749;49.186;9.222;2023-09-19T12:47:15;4.18;;;1.52;;
75169;SDS011;63749;49.186;9.222;2023-09-19T12:52:54;3.20;;;1.70;;
75169;SDS011;63749;49.186;9.222;2023-09-19T12:58:07;3.67;;;1.85;;
75169;SDS011;63749;49.186;9.222;2023-09-19T13:00:37;7.70;;;2.08;;
75169;SDS011;63749;49.186;9.222;2023-09-19T13:03:24;4.78;;;2.20;;
75169;SDS011;63749;49.186;9.222;2023-09-19T13:05:57;2.90;;;1.80;;
75169;SDS011;63749;49.186;9.222;2023-09-19T13:08:29;6.13;;;2.00;;
75169;SDS011;63749;49.186;9.222;2023-09-19T13:11:16;3.92;;;2.13;;
75169;SDS011;63749;49.186;9.222;2023-09-19T13:17:01;6.13;;;2.58;;
75169;SDS011;63749;49.186;9.222;2023-09-19T13:20:00;4.50;;;2.40;;
75169;SDS011;63749;49.186;9.222;2023-09-19T13:22:43;3.72;;;1.63;;
75169;SDS011;63749;49.186;9.222;2023-09-19T13:25:18;2.67;;;1.50;;
75169;SDS011;63749;49.186;9.222;2023-09-19T13:27:54;3.97;;;2.33;;
75169;SDS011;63749;49.186;9.222;2023-09-19T13:30:21;3.35;;;1.67;;
75169;SDS011;63749;49.186;9.222;2023-09-19T13:32:50;3.63;;;1.60;;
75169;SDS011;63749;49.186;9.222;2023-09-19T13:35:16;4.00;;;1.50;;
75169;SDS011;63749;49.186;9.222;2023-09-19T13:37:42;3.10;;;1.50;;
75169;SDS011;63749;49.186;9.222;2023-09-19T13:42:34;4.72;;;2.35;;
75169;SDS011;63749;49.186;9.222;2023-09-19T13:45:01;4.25;;;2.40;;
75169;SDS011;63749;49.186;9.222;2023-09-19T13:47:28;5.15;;;2.55;;
75169;SDS011;63749;49.186;9.222;2023-09-19T13:49:54;3.03;;;1.70;;
75169;SDS011;63749;49.186;9.222;2023-09-19T13:52:19;4.37;;;2.50;;
75169;SDS011;63749;49.186;9.222;2023-09-19T13:54:46;3.63;;;2.60;;
75169;SDS011;63749;49.186;9.222;2023-09-19T13:57:12;3.70;;;2.40;;
75169;SDS011;63749;49.186;9.222;2023-09-19T13:59:37;4.43;;;2.43;;
75169;SDS011;63749;49.186;9.222;2023-09-19T14:02:03;3.90;;;2.28;;
75169;SDS011;63749;49.186;9.222;2023-09-19T14:04:28;3.20;;;2.47;;
75169;SDS011;63749;49.186;9.222;2023-09-19T14:06:54;3.43;;;2.30;;
75169;SDS011;63749;49.186;9.222;2023-09-19T14:09:19;4.57;;;2.90;;
75169;SDS011;63749;49.186;9.222;2023-09-19T14:11:45;4.45;;;2.40;;
75169;SDS011;63749;49.186;9.222;2023-09-19T14:14:12;4.23;;;2.20;;
75169;SDS011;63749;49.186;9.222;2023-09-19T14:16:38;3.70;;;2.38;;
75169;SDS011;63749;49.186;9.222;2023-09-19T14:19:04;5.00;;;2.55;;
75169;SDS011;63749;49.186;9.222;2023-09-19T14:21:30;3.43;;;2.47;;
75169;SDS011;63749;49.186;9.222;2023-09-19T14:23:55;4.10;;;2.53;;
75169;SDS011;63749;49.186;9.222;2023-09-19T14:26:22;4.30;;;2.00;;
75169;SDS011;63749;49.186;9.222;2023-09-19T14:28:48;2.33;;;1.70;;
75169;SDS011;63749;49.186;9.222;2023-09-19T14:31:13;3.97;;;2.07;;
75169;SDS011;63749;49.186;9.222;2023-09-19T14:33:39;4.85;;;2.40;;
75169;SDS011;63749;49.186;9.222;2023-09-19T14:36:06;3.75;;;2.50;;
75169;SDS011;63749;49.186;9.222;2023-09-19T14:38:35;3.47;;;2.33;;
75169;SDS011;63749;49.186;9.222;2023-09-19T14:41:02;3.03;;;2.00;;
75169;SDS011;63749;49.186;9.222;2023-09-19T14:43:29;2.73;;;2.27;;
75169;SDS011;63749;49.186;9.222;2023-09-19T14:45:55;2.78;;;2.40;;
75169;SDS011;63749;49.186;9.222;2023-09-19T14:48:22;3.92;;;2.20;;
75169;SDS011;63749;49.186;9.222;2023-09-19T14:50:50;3.72;;;1.80;;
75169;SDS011;63749;49.186;9.222;2023-09-19T14:53:16;3.60;;;2.40;;
75169;SDS011;63749;49.186;9.222;2023-09-19T14:55:41;3.03;;;2.10;;
75169;SDS011;63749;49.186;9.222;2023-09-19T14:58:10;3.80;;;1.95;;
75169;SDS011;63749;49.186;9.222;2023-09-19T15:00:36;2.73;;;1.90;;
75169;SDS011;63749;49.186;9.222;2023-09-19T15:03:01;2.40;;;1.80;;
75169;SDS011;63749;49.186;9.222;2023-09-19T15:05:27;2.40;;;1.80;;
75169;SDS011;63749;49.186;9.222;2023-09-19T15:07:55;2.97;;;2.10;;
75169;SDS011;63749;49.186;9.222;2023-09-19T15:10:21;3.58;;;1.90;;
75169;SDS011;63749;49.186;9.222;2023-09-19T15:12:47;5.33;;;1.70;;
75169;SDS011;63749;49.186;9.222;2023-09-19T15:15:13;3.20;;;1.90;;
75169;SDS011;63749;49.186;9.222;2023-09-19T15:17:39;4.85;;;1.90;;
75169;SDS011;63749;49.186;9.222;2023-09-19T15:20:04;5.70;;;1.90;;
75169;SDS011;63749;49.186;9.222;2023-09-19T15:22:32;4.15;;;1.75;;
75169;SDS011;63749;49.186;9.222;2023-09-19T15:25:00;5.30;;;1.90;;
75169;SDS011;63749;49.186;9.222;2023-09-19T15:27:27;3.05;;;2.10;;
75169;SDS011;63749;49.186;9.222;2023-09-19T15:29:55;3.10;;;2.40;;
75169;SDS011;63749;49.186;9.222;2023-09-19T15:32:20;9.93;;;2.40;;
75169;SDS011;63749;49.186;9.222;2023-09-19T15:34:47;9.97;;;2.60;;
75169;SDS011;63749;49.186;9.222;2023-09-19T15:37:12;3.45;;;2.17;;
75169;SDS011;63749;49.186;9.222;2023-09-19T15:39:37;2.80;;;1.93;;
75169;SDS011;63749;49.186;9.222;2023-09-19T15:42:03;2.85;;;1.80;;
75169;SDS011;63749;49.186;9.222;2023-09-19T15:44:28;2.37;;;1.80;;
75169;SDS011;63749;49.186;9.222;2023-09-19T15:46:55;1.83;;;1.60;;
75169;SDS011;63749;49.186;9.222;2023-09-19T15:49:20;2.70;;;1.55;;
75169;SDS011;63749;49.186;9.222;2023-09-19T15:51:46;3.33;;;1.57;;
75169;SDS011;63749;49.186;9.222;2023-09-19T15:54:11;2.60;;;1.73;;
75169;SDS011;63749;49.186;9.222;2023-09-19T15:56:40;3.15;;;1.75;;
75169;SDS011;63749;49.186;9.222;2023-09-19T15:59:06;2.00;;;1.60;;
75169;SDS011;63749;49.186;9.222;2023-09-19T16:01:33;2.10;;;1.75;;
75169;SDS011;63749;49.186;9.222;2023-09-19T16:03:59;3.27;;;1.40;;
75169;SDS011;63749;49.186;9.222;2023-09-19T16:06:25;3.10;;;1.30;;